createdAt,value
2018-02-21T00:00:09.683Z,101266.40
2018-02-21T00:01:12.159Z,101271.61
2018-02-21T00:02:14.628Z,101266.95
2018-02-21T00:03:17.100Z,101268.77
2018-02-21T00:04:19.596Z,101270.21
2018-02-21T00:05:22.073Z,101273.97
2018-02-21T00:06:24.535Z,101268.80
2018-02-21T00:07:27.007Z,101278.63
2018-02-21T00:08:29.990Z,101270.24
2018-02-21T00:09:32.497Z,101268.80
2018-02-21T00:10:35.719Z,101275.28
2018-02-21T00:11:38.183Z,101275.53
2018-02-21T00:12:40.671Z,101275.44
2018-02-21T00:13:43.148Z,101275.84
2018-02-21T00:14:45.645Z,101275.13
2018-02-21T00:15:48.159Z,101279.72
2018-02-21T00:16:50.620Z,101279.34
2018-02-21T00:17:53.097Z,101282.98
2018-02-21T00:18:55.564Z,101283.70
2018-02-21T00:19:58.060Z,101284.01
2018-02-21T00:21:00.522Z,101283.91
2018-02-21T00:22:02.996Z,101291.52
2018-02-21T00:23:05.477Z,101289.33
2018-02-21T00:24:07.947Z,101282.91
2018-02-21T00:25:10.456Z,101289.12
2018-02-21T00:26:12.944Z,101287.50
2018-02-21T00:27:15.421Z,101290.84
2018-02-21T00:28:17.907Z,101284.44
2018-02-21T00:29:20.393Z,101281.73
2018-02-21T00:30:22.891Z,101282.20
2018-02-21T00:31:25.350Z,101290.21
2018-02-21T00:32:27.810Z,101286.55
2018-02-21T00:33:30.282Z,101287.55
2018-02-21T00:34:32.770Z,101290.05
2018-02-21T00:35:35.272Z,101291.48
2018-02-21T00:36:37.739Z,101298.20
2018-02-21T00:37:40.225Z,101302.93
2018-02-21T00:38:42.709Z,101299.34
2018-02-21T00:39:45.197Z,101304.36
2018-02-21T00:40:47.688Z,101300.84
2018-02-21T00:41:50.151Z,101303.12
2018-02-21T00:42:52.629Z,101307.55
2018-02-21T00:43:55.109Z,101308.55
2018-02-21T00:44:57.575Z,101309.77
2018-02-21T00:46:00.060Z,101304.82
2018-02-21T00:47:02.531Z,101309.86
2018-02-21T00:48:04.999Z,101308.27
2018-02-21T00:49:07.465Z,101310.14
2018-02-21T00:50:09.939Z,101311.77
2018-02-21T00:51:12.429Z,101308.61
2018-02-21T00:52:14.908Z,101308.77
2018-02-21T00:53:17.385Z,101305.77
2018-02-21T00:54:19.855Z,101301.69
2018-02-21T00:55:22.341Z,101308.08
2018-02-21T00:56:24.830Z,101308.39
2018-02-21T00:57:27.314Z,101307.73
2018-02-21T00:58:29.787Z,101304.35
2018-02-21T00:59:32.252Z,101301.41
2018-02-21T01:00:34.715Z,101306.57
2018-02-21T01:01:37.221Z,101308.17
2018-02-21T01:02:39.689Z,101310.01
2018-02-21T01:03:42.154Z,101312.23
2018-02-21T01:04:44.629Z,101312.30
2018-02-21T01:05:47.098Z,101319.80
2018-02-21T01:06:49.598Z,101317.26
2018-02-21T01:07:52.148Z,101318.03
2018-02-21T01:08:54.650Z,101315.72
2018-02-21T01:09:57.119Z,101317.15
2018-02-21T01:10:59.583Z,101312.11
2018-02-21T01:12:02.092Z,101313.95
2018-02-21T01:13:04.570Z,101313.60
2018-02-21T01:14:07.036Z,101306.78
2018-02-21T01:15:09.521Z,101304.05
2018-02-21T01:16:12.001Z,101302.27
2018-02-21T01:17:14.497Z,101302.68
2018-02-21T01:18:16.971Z,101293.73
2018-02-21T01:19:19.449Z,101292.34
2018-02-21T01:20:21.945Z,101292.62
2018-02-21T01:21:24.415Z,101289.73
2018-02-21T01:22:26.915Z,101291.30
2018-02-21T01:23:29.383Z,101293.92
2018-02-21T01:24:31.851Z,101296.18
2018-02-21T01:25:34.329Z,101294.18
2018-02-21T01:26:36.788Z,101294.84
2018-02-21T01:27:39.369Z,101302.06
2018-02-21T01:28:41.842Z,101304.01
2018-02-21T01:29:44.317Z,101309.36
2018-02-21T01:30:46.782Z,101309.61
2018-02-21T01:31:49.244Z,101313.59
2018-02-21T01:32:51.732Z,101319.00
2018-02-21T01:33:54.217Z,101318.34
2018-02-21T01:34:56.698Z,101315.74
2018-02-21T01:35:59.162Z,101319.78
2018-02-21T01:37:01.641Z,101320.34
2018-02-21T01:38:04.138Z,101317.09
2018-02-21T01:39:06.627Z,101310.52
2018-02-21T01:40:09.115Z,101307.82
2018-02-21T01:41:11.593Z,101309.63
2018-02-21T01:42:14.059Z,101306.94
2018-02-21T01:43:16.526Z,101310.56
2018-02-21T01:44:19.037Z,101320.67
2018-02-21T01:45:21.495Z,101314.41
2018-02-21T01:46:24.058Z,101314.59
2018-02-21T01:47:26.523Z,101315.06
2018-02-21T01:48:28.987Z,101315.12
2018-02-21T01:49:31.455Z,101311.61
2018-02-21T01:50:45.775Z,101312.48
2018-02-21T01:51:48.258Z,101314.07
2018-02-21T01:52:50.737Z,101313.25
2018-02-21T01:53:53.222Z,101301.69
2018-02-21T01:54:55.709Z,101298.06
2018-02-21T01:55:58.189Z,101292.69
2018-02-21T01:57:00.677Z,101289.29
2018-02-21T01:58:03.157Z,101292.98
2018-02-21T01:59:05.637Z,101290.11
2018-02-21T02:00:08.118Z,101299.00
2018-02-21T02:01:10.605Z,101293.52
2018-02-21T02:02:13.080Z,101299.38
2018-02-21T02:03:15.562Z,101306.45
2018-02-21T02:04:18.039Z,101310.89
2018-02-21T02:05:20.521Z,101306.70
2018-02-21T02:06:23.006Z,101307.20
2018-02-21T02:07:25.483Z,101308.73
2018-02-21T02:08:27.973Z,101308.33
2018-02-21T02:09:30.457Z,101303.47
2018-02-21T02:10:32.934Z,101297.72
2018-02-21T02:11:35.402Z,101298.44
2018-02-21T02:12:37.882Z,101296.16
2018-02-21T02:13:40.375Z,101301.41
2018-02-21T02:14:42.849Z,101293.74
2018-02-21T02:15:45.327Z,101294.13
2018-02-21T02:16:47.795Z,101295.00
2018-02-21T02:17:50.264Z,101296.53
2018-02-21T02:18:52.754Z,101301.84
2018-02-21T02:19:55.243Z,101297.63
2018-02-21T02:20:57.722Z,101300.16
2018-02-21T02:22:00.190Z,101298.58
2018-02-21T02:23:02.655Z,101304.81
2018-02-21T02:24:05.135Z,101303.50
2018-02-21T02:25:07.612Z,101307.69
2018-02-21T02:26:10.081Z,101307.45
2018-02-21T02:27:12.565Z,101302.42
2018-02-21T02:28:15.045Z,101304.52
2018-02-21T02:29:17.510Z,101297.48
2018-02-21T02:30:19.993Z,101288.00
2018-02-21T02:31:22.459Z,101292.33
2018-02-21T02:32:24.941Z,101289.36
2018-02-21T02:33:27.417Z,101284.55
2018-02-21T02:34:29.883Z,101280.01
2018-02-21T02:35:32.366Z,101287.33
2018-02-21T02:36:34.835Z,101285.61
2018-02-21T02:37:37.313Z,101289.11
2018-02-21T02:38:42.034Z,101293.74
2018-02-21T02:40:02.252Z,101294.72
2018-02-21T02:41:04.719Z,101295.13
2018-02-21T02:42:07.190Z,101294.15
2018-02-21T02:43:09.656Z,101296.41
2018-02-21T02:44:12.141Z,101299.47
2018-02-21T02:45:14.627Z,101294.78
2018-02-21T02:46:17.119Z,101294.40
2018-02-21T02:47:19.598Z,101296.09
2018-02-21T02:48:22.063Z,101296.81
2018-02-21T02:49:24.535Z,101297.03
2018-02-21T02:50:27.034Z,101292.65
2018-02-21T02:51:29.506Z,101298.31
2018-02-21T02:52:31.971Z,101299.75
2018-02-21T02:53:34.453Z,101299.28
2018-02-21T02:54:36.933Z,101293.36
2018-02-21T02:55:39.430Z,101301.13
2018-02-21T02:56:41.915Z,101302.81
2018-02-21T02:57:44.397Z,101302.46
2018-02-21T02:58:46.874Z,101307.22
2018-02-21T02:59:49.361Z,101312.78
2018-02-21T03:00:51.866Z,101318.31
2018-02-21T03:01:54.331Z,101318.88
2018-02-21T03:02:56.810Z,101317.50
2018-02-21T03:03:59.278Z,101326.14
2018-02-21T03:05:01.750Z,101321.98
2018-02-21T03:06:04.254Z,101324.21
2018-02-21T03:07:06.790Z,101322.09
2018-02-21T03:08:09.270Z,101317.38
2018-02-21T03:09:11.746Z,101319.88
2018-02-21T03:10:14.211Z,101322.97
2018-02-21T03:11:16.691Z,101316.18
2018-02-21T03:12:19.159Z,101320.41
2018-02-21T03:13:21.633Z,101318.16
2018-02-21T03:14:24.122Z,101326.58
2018-02-21T03:15:26.605Z,101315.65
2018-02-21T03:16:29.095Z,101325.60
2018-02-21T03:17:31.568Z,101323.82
2018-02-21T03:18:34.033Z,101323.31
2018-02-21T03:19:36.517Z,101326.39
2018-02-21T03:20:38.991Z,101331.80
2018-02-21T03:21:41.479Z,101331.70
2018-02-21T03:22:43.957Z,101332.05
2018-02-21T03:23:46.424Z,101335.52
2018-02-21T03:24:48.894Z,101340.68
2018-02-21T03:25:51.372Z,101343.65
2018-02-21T03:26:53.897Z,101344.68
2018-02-21T03:27:56.372Z,101349.40
2018-02-21T03:28:58.862Z,101343.95
2018-02-21T03:30:01.332Z,101351.14
2018-02-21T03:31:03.795Z,101350.23
2018-02-21T03:32:06.301Z,101351.83
2018-02-21T03:33:08.769Z,101350.50
2018-02-21T03:34:11.250Z,101352.72
2018-02-21T03:35:13.716Z,101360.16
2018-02-21T03:36:16.259Z,101364.02
2018-02-21T03:37:18.762Z,101359.02
2018-02-21T03:38:21.227Z,101361.55
2018-02-21T03:39:23.695Z,101365.11
2018-02-21T03:40:26.162Z,101363.48
2018-02-21T03:41:28.637Z,101364.59
2018-02-21T03:42:31.138Z,101366.47
2018-02-21T03:43:33.610Z,101359.12
2018-02-21T03:44:36.075Z,101363.31
2018-02-21T03:45:38.566Z,101357.50
2018-02-21T03:46:41.030Z,101363.10
2018-02-21T03:47:43.529Z,101356.63
2018-02-21T03:48:46.004Z,101358.97
2018-02-21T03:49:48.494Z,101365.86
2018-02-21T03:50:50.963Z,101360.75
2018-02-21T03:51:53.453Z,101366.42
2018-02-21T03:52:55.944Z,101367.30
2018-02-21T03:53:58.454Z,101370.77
2018-02-21T03:55:00.922Z,101367.76
2018-02-21T03:56:03.401Z,101370.55
2018-02-21T03:57:05.882Z,101371.82
2018-02-21T03:58:08.383Z,101375.61
2018-02-21T03:59:10.866Z,101374.95
2018-02-21T04:00:13.350Z,101381.23
2018-02-21T04:01:15.810Z,101381.28
2018-02-21T04:02:18.279Z,101379.97
2018-02-21T04:03:20.763Z,101377.80
2018-02-21T04:04:23.241Z,101382.55
2018-02-21T04:05:25.724Z,101383.73
2018-02-21T04:06:28.187Z,101380.73
2018-02-21T04:07:30.666Z,101380.38
2018-02-21T04:08:33.158Z,101383.38
2018-02-21T04:09:35.632Z,101386.08
2018-02-21T04:10:38.094Z,101380.46
2018-02-21T04:11:40.573Z,101382.26
2018-02-21T04:12:43.059Z,101382.23
2018-02-21T04:13:45.554Z,101393.42
2018-02-21T04:14:48.031Z,101391.77
2018-02-21T04:15:50.514Z,101395.03
2018-02-21T04:16:52.988Z,101389.30
2018-02-21T04:17:55.475Z,101395.87
2018-02-21T04:19:00.869Z,101393.09
2018-02-21T04:20:03.334Z,101395.28
2018-02-21T04:21:05.799Z,101394.88
2018-02-21T04:22:08.263Z,101394.06
2018-02-21T04:23:10.726Z,101394.75
2018-02-21T04:24:13.211Z,101401.38
2018-02-21T04:25:15.685Z,101397.16
2018-02-21T04:26:18.211Z,101396.66
2018-02-21T04:27:20.678Z,101399.31
2018-02-21T04:28:23.263Z,101398.25
2018-02-21T04:29:25.760Z,101397.48
2018-02-21T04:30:28.226Z,101397.27
2018-02-21T04:31:30.690Z,101399.11
2018-02-21T04:32:33.171Z,101397.13
2018-02-21T04:33:35.657Z,101403.52
2018-02-21T04:34:38.160Z,101399.44
2018-02-21T04:35:40.638Z,101406.94
2018-02-21T04:36:43.105Z,101408.19
2018-02-21T04:37:45.572Z,101405.09
2018-02-21T04:38:48.055Z,101405.80
2018-02-21T04:39:50.558Z,101405.64
2018-02-21T04:40:53.060Z,101407.91
2018-02-21T04:41:55.522Z,101413.52
2018-02-21T04:42:57.990Z,101410.53
2018-02-21T04:44:00.466Z,101417.48
2018-02-21T04:45:02.958Z,101416.41
2018-02-21T04:46:05.433Z,101419.25
2018-02-21T04:47:07.899Z,101415.06
2018-02-21T04:48:10.391Z,101421.05
2018-02-21T04:49:12.895Z,101411.81
2018-02-21T04:50:15.405Z,101413.75
2018-02-21T04:51:17.885Z,101405.42
2018-02-21T04:52:20.355Z,101416.05
2018-02-21T04:53:22.823Z,101411.66
2018-02-21T04:54:35.207Z,101416.76
2018-02-21T04:55:43.223Z,101415.54
2018-02-21T04:58:24.774Z,101423.64
2018-02-21T04:59:30.146Z,101421.59
2018-02-21T05:00:32.615Z,101416.30
2018-02-21T05:01:35.112Z,101414.58
2018-02-21T05:02:37.578Z,101415.17
2018-02-21T05:03:40.044Z,101418.64
2018-02-21T05:04:42.521Z,101418.29
2018-02-21T05:05:45.016Z,101416.41
2018-02-21T05:06:47.496Z,101419.06
2018-02-21T05:07:49.978Z,101419.84
2018-02-21T05:08:52.462Z,101421.52
2018-02-21T05:09:54.937Z,101417.42
2018-02-21T05:10:57.445Z,101417.16
2018-02-21T05:11:59.925Z,101417.67
2018-02-21T05:13:02.397Z,101416.05
2018-02-21T05:14:04.862Z,101419.82
2018-02-21T05:15:07.332Z,101412.56
2018-02-21T05:16:09.817Z,101410.80
2018-02-21T05:17:12.298Z,101411.09
2018-02-21T05:18:14.781Z,101412.72
2018-02-21T05:19:17.261Z,101416.66
2018-02-21T05:20:19.733Z,101418.70
2018-02-21T05:21:22.233Z,101409.56
2018-02-21T05:22:24.712Z,101418.89
2018-02-21T05:23:27.193Z,101413.07
2018-02-21T05:24:29.658Z,101404.80
2018-02-21T05:25:32.141Z,101405.22
2018-02-21T05:26:34.626Z,101410.47
2018-02-21T05:27:37.111Z,101409.50
2018-02-21T05:28:39.579Z,101404.87
2018-02-21T05:29:42.060Z,101403.80
2018-02-21T05:30:44.549Z,101400.13
2018-02-21T05:31:47.041Z,101402.61
2018-02-21T05:32:49.525Z,101399.81
2018-02-21T05:33:51.988Z,101402.22
2018-02-21T05:34:54.478Z,101402.69
2018-02-21T05:35:56.966Z,101398.52
2018-02-21T05:36:59.524Z,101402.11
2018-02-21T05:38:02.034Z,101400.29
2018-02-21T05:39:04.543Z,101402.95
2018-02-21T05:40:07.011Z,101406.16
2018-02-21T05:41:09.497Z,101411.83
2018-02-21T05:42:11.983Z,101413.61
2018-02-21T05:43:14.447Z,101410.24
2018-02-21T05:44:16.912Z,101409.41
2018-02-21T05:45:19.375Z,101411.27
2018-02-21T05:46:21.840Z,101418.12
2018-02-21T05:47:24.327Z,101410.19
2018-02-21T05:48:26.804Z,101408.44
2018-02-21T05:49:29.272Z,101409.19
2018-02-21T05:50:31.757Z,101406.22
2018-02-21T05:51:34.328Z,101406.94
2018-02-21T05:52:36.811Z,101412.39
2018-02-21T05:53:39.291Z,101407.13
2018-02-21T05:54:41.767Z,101409.63
2018-02-21T05:55:44.261Z,101407.44
2018-02-21T05:56:46.737Z,101412.70
2018-02-21T05:57:49.311Z,101408.06
2018-02-21T05:58:51.775Z,101408.38
2018-02-21T05:59:54.261Z,101410.22
2018-02-21T06:00:56.742Z,101415.95
2018-02-21T06:01:59.224Z,101412.94
2018-02-21T06:03:01.730Z,101417.60
2018-02-21T06:04:04.196Z,101425.42
2018-02-21T06:05:06.722Z,101423.13
2018-02-21T06:06:09.177Z,101427.06
2018-02-21T06:07:11.641Z,101426.31
2018-02-21T06:08:14.149Z,101420.42
2018-02-21T06:09:16.633Z,101422.83
2018-02-21T06:10:19.116Z,101420.69
2018-02-21T06:11:21.587Z,101422.53
2018-02-21T06:12:24.056Z,101424.13
2018-02-21T06:13:26.546Z,101425.19
2018-02-21T06:14:29.018Z,101429.31
2018-02-21T06:15:31.484Z,101424.16
2018-02-21T06:16:33.989Z,101420.23
2018-02-21T06:17:36.458Z,101421.37
2018-02-21T06:18:38.971Z,101425.53
2018-02-21T06:19:41.435Z,101427.20
2018-02-21T06:20:43.900Z,101421.33
2018-02-21T06:21:46.369Z,101419.27
2018-02-21T06:22:48.868Z,101418.48
2018-02-21T06:23:51.366Z,101417.45
2018-02-21T06:24:53.834Z,101420.46
2018-02-21T06:25:56.303Z,101416.73
2018-02-21T06:26:58.929Z,101418.11
2018-02-21T06:28:01.417Z,101408.62
2018-02-21T06:29:04.005Z,101413.89
2018-02-21T06:30:06.523Z,101420.52
2018-02-21T06:31:08.989Z,101419.95
2018-02-21T06:32:11.483Z,101424.80
2018-02-21T06:33:13.955Z,101426.50
2018-02-21T06:34:16.444Z,101427.38
2018-02-21T06:35:18.985Z,101432.22
2018-02-21T06:36:21.447Z,101428.27
2018-02-21T06:37:23.910Z,101431.24
2018-02-21T06:38:26.394Z,101428.95
2018-02-21T06:39:28.910Z,101426.25
2018-02-21T06:40:31.383Z,101431.56
2018-02-21T06:41:33.897Z,101437.92
2018-02-21T06:42:36.373Z,101432.06
2018-02-21T06:43:38.847Z,101439.41
2018-02-21T06:44:41.331Z,101446.70
2018-02-21T06:45:43.813Z,101451.14
2018-02-21T06:46:46.293Z,101448.79
2018-02-21T06:47:48.769Z,101452.96
2018-02-21T06:48:51.248Z,101451.35
2018-02-21T06:49:53.750Z,101455.62
2018-02-21T06:50:56.229Z,101455.66
2018-02-21T06:51:58.730Z,101456.05
2018-02-21T06:53:01.214Z,101456.48
2018-02-21T06:54:03.682Z,101457.81
2018-02-21T06:55:06.168Z,101453.77
2018-02-21T06:56:08.638Z,101451.11
2018-02-21T06:57:11.116Z,101455.09
2018-02-21T06:58:13.593Z,101457.28
2018-02-21T06:59:16.102Z,101454.53
2018-02-21T07:00:18.590Z,101459.38
2018-02-21T07:01:21.055Z,101462.85
2018-02-21T07:02:35.488Z,101461.78
2018-02-21T07:03:37.985Z,101461.03
2018-02-21T07:04:40.478Z,101458.73
2018-02-21T07:05:43.095Z,101458.08
2018-02-21T07:06:45.747Z,101454.77
2018-02-21T07:07:48.229Z,101461.14
2018-02-21T07:08:50.695Z,101462.23
2018-02-21T07:09:53.163Z,101468.63
2018-02-21T07:10:55.651Z,101466.64
2018-02-21T07:11:58.165Z,101465.06
2018-02-21T07:13:00.661Z,101464.62
2018-02-21T07:14:03.123Z,101471.12
2018-02-21T07:15:05.589Z,101469.55
2018-02-21T07:16:08.085Z,101470.31
2018-02-21T07:17:10.552Z,101480.97
2018-02-21T07:18:13.033Z,101476.03
2018-02-21T07:19:15.499Z,101477.70
2018-02-21T07:20:17.974Z,101474.53
2018-02-21T07:21:20.487Z,101465.36
2018-02-21T07:22:22.965Z,101478.20
2018-02-21T07:23:25.439Z,101479.17
2018-02-21T07:24:27.925Z,101474.94
2018-02-21T07:25:30.403Z,101483.47
2018-02-21T07:26:32.917Z,101484.98
2018-02-21T07:27:35.409Z,101487.65
2018-02-21T07:28:37.905Z,101484.77
2018-02-21T07:29:40.397Z,101484.58
2018-02-21T07:30:42.884Z,101487.50
2018-02-21T07:31:45.387Z,101480.87
2018-02-21T07:32:47.873Z,101488.84
2018-02-21T07:33:50.359Z,101486.31
2018-02-21T07:34:52.849Z,101481.69
2018-02-21T07:35:55.352Z,101480.00
2018-02-21T07:36:57.869Z,101488.97
2018-02-21T07:38:00.398Z,101483.61
2018-02-21T07:39:02.968Z,101486.62
2018-02-21T07:40:05.469Z,101489.52
2018-02-21T07:41:07.958Z,101494.06
2018-02-21T07:42:10.459Z,101486.37
2018-02-21T07:43:12.951Z,101488.15
2018-02-21T07:44:15.438Z,101476.33
2018-02-21T07:45:17.916Z,101480.61
2018-02-21T07:46:20.403Z,101468.48
2018-02-21T07:47:22.916Z,101471.39
2018-02-21T07:48:25.399Z,101467.98
2018-02-21T07:49:27.905Z,101470.08
2018-02-21T07:50:30.417Z,101467.52
2018-02-21T07:51:32.896Z,101477.05
2018-02-21T07:52:35.401Z,101477.66
2018-02-21T07:53:37.889Z,101477.95
2018-02-21T07:54:40.383Z,101472.16
2018-02-21T07:55:42.851Z,101476.33
2018-02-21T07:56:45.335Z,101468.49
2018-02-21T07:57:47.846Z,101467.81
2018-02-21T07:58:50.337Z,101465.25
2018-02-21T07:59:52.826Z,101466.14
2018-02-21T08:00:55.339Z,101459.63
2018-02-21T08:01:57.859Z,101459.77
2018-02-21T08:03:00.532Z,101456.87
2018-02-21T08:04:03.041Z,101458.19
2018-02-21T08:05:05.530Z,101464.23
2018-02-21T08:06:08.022Z,101455.53
2018-02-21T08:07:10.509Z,101449.50
2018-02-21T08:08:12.992Z,101450.31
2018-02-21T08:09:15.479Z,101452.74
2018-02-21T08:10:17.969Z,101456.92
2018-02-21T08:11:20.450Z,101457.61
2018-02-21T08:12:22.926Z,101458.24
2018-02-21T08:13:25.406Z,101461.09
2018-02-21T08:14:27.877Z,101461.00
2018-02-21T08:15:30.420Z,101464.13
2018-02-21T08:16:32.901Z,101461.16
2018-02-21T08:17:35.371Z,101461.97
2018-02-21T08:18:37.843Z,101466.92
2018-02-21T08:19:40.322Z,101473.00
2018-02-21T08:20:42.874Z,101470.40
2018-02-21T08:21:45.350Z,101470.47
2018-02-21T08:22:47.933Z,101469.24
2018-02-21T08:23:50.417Z,101471.47
2018-02-21T08:24:52.925Z,101464.48
2018-02-21T08:25:55.412Z,101462.85
2018-02-21T08:26:58.028Z,101467.23
2018-02-21T08:28:00.511Z,101466.83
2018-02-21T08:29:02.987Z,101466.77
2018-02-21T08:30:05.478Z,101466.63
2018-02-21T08:31:07.957Z,101475.99
2018-02-21T08:32:10.458Z,101470.08
2018-02-21T08:33:12.951Z,101472.39
2018-02-21T08:34:15.422Z,101474.98
2018-02-21T08:35:17.914Z,101469.80
2018-02-21T08:36:20.387Z,101477.77
2018-02-21T08:37:22.877Z,101474.37
2018-02-21T08:38:25.395Z,101471.05
2018-02-21T08:39:28.057Z,101477.20
2018-02-21T08:40:30.547Z,101477.17
2018-02-21T08:41:33.049Z,101473.77
2018-02-21T08:42:35.537Z,101476.28
2018-02-21T08:43:38.029Z,101476.53
2018-02-21T08:44:40.518Z,101478.47
2018-02-21T08:45:43.006Z,101485.05
2018-02-21T08:46:45.480Z,101484.25
2018-02-21T08:47:47.955Z,101482.10
2018-02-21T08:48:50.442Z,101479.23
2018-02-21T08:49:52.915Z,101483.23
2018-02-21T08:50:55.387Z,101479.61
2018-02-21T08:51:57.875Z,101480.22
2018-02-21T08:53:00.370Z,101487.94
2018-02-21T08:54:02.882Z,101482.13
2018-02-21T08:55:05.354Z,101483.14
2018-02-21T08:56:07.823Z,101481.09
2018-02-21T08:57:10.309Z,101481.52
2018-02-21T08:58:12.803Z,101484.50
2018-02-21T08:59:15.293Z,101481.97
2018-02-21T09:00:17.775Z,101485.89
2018-02-21T09:01:20.255Z,101480.13
2018-02-21T09:02:22.727Z,101481.23
2018-02-21T09:03:25.209Z,101479.52
2018-02-21T09:04:27.687Z,101480.86
2018-02-21T09:05:30.158Z,101476.39
2018-02-21T09:06:32.676Z,101474.32
2018-02-21T09:07:35.128Z,101477.39
2018-02-21T09:08:37.617Z,101474.55
2018-02-21T09:09:40.174Z,101471.45
2018-02-21T09:10:42.682Z,101471.61
2018-02-21T09:11:45.150Z,101469.56
2018-02-21T09:12:47.638Z,101465.09
2018-02-21T09:13:50.137Z,101470.52
2018-02-21T09:14:52.856Z,101465.44
2018-02-21T09:15:55.368Z,101468.42
2018-02-21T09:16:57.958Z,101461.25
2018-02-21T09:18:00.452Z,101466.83
2018-02-21T09:19:02.936Z,101462.50
2018-02-21T09:20:05.440Z,101462.29
2018-02-21T09:21:07.937Z,101457.34
2018-02-21T09:22:10.437Z,101455.55
2018-02-21T09:23:12.951Z,101446.80
2018-02-21T09:24:15.436Z,101453.13
2018-02-21T09:25:18.015Z,101456.33
2018-02-21T09:26:20.574Z,101448.23
2018-02-21T09:27:23.068Z,101456.41
2018-02-21T09:28:25.557Z,101453.77
2018-02-21T09:29:28.049Z,101452.48
2018-02-21T09:30:30.542Z,101449.97
2018-02-21T09:31:33.037Z,101450.06
2018-02-21T09:32:35.522Z,101447.86
2018-02-21T09:33:37.991Z,101453.70
2018-02-21T09:34:40.477Z,101453.05
2018-02-21T09:35:42.950Z,101456.77
2018-02-21T09:36:45.439Z,101451.07
2018-02-21T09:37:47.942Z,101454.88
2018-02-21T09:38:50.424Z,101446.09
2018-02-21T09:39:52.896Z,101449.33
2018-02-21T09:40:55.389Z,101445.63
2018-02-21T09:41:57.893Z,101447.64
2018-02-21T09:43:00.387Z,101450.72
2018-02-21T09:44:02.873Z,101454.92
2018-02-21T09:45:05.354Z,101451.25
2018-02-21T09:46:07.853Z,101446.49
2018-02-21T09:47:10.390Z,101455.39
2018-02-21T09:48:12.875Z,101453.52
2018-02-21T09:49:15.355Z,101459.41
2018-02-21T09:50:17.861Z,101461.25
2018-02-21T09:51:20.350Z,101452.36
2018-02-21T09:52:22.823Z,101453.14
2018-02-21T09:53:25.319Z,101459.69
2018-02-21T09:54:27.829Z,101457.96
2018-02-21T09:55:30.326Z,101451.70
2018-02-21T09:56:32.799Z,101460.56
2018-02-21T09:57:35.275Z,101450.81
2018-02-21T09:58:37.789Z,101454.77
2018-02-21T09:59:40.295Z,101454.00
2018-02-21T10:00:43.222Z,101458.17
2018-02-21T10:01:45.699Z,101451.18
2018-02-21T10:02:48.182Z,101448.61
2018-02-21T10:03:50.663Z,101460.34
2018-02-21T10:04:53.225Z,101456.53
2018-02-21T10:05:55.717Z,101463.42
2018-02-21T10:06:58.196Z,101456.73
2018-02-21T10:08:00.686Z,101463.13
2018-02-21T10:09:03.177Z,101458.48
2018-02-21T10:10:05.666Z,101464.31
2018-02-21T10:11:08.180Z,101465.15
2018-02-21T10:12:10.651Z,101455.66
2018-02-21T10:13:13.143Z,101454.19
2018-02-21T10:14:15.641Z,101459.03
2018-02-21T10:15:18.158Z,101463.88
2018-02-21T10:16:20.671Z,101457.72
2018-02-21T10:17:23.165Z,101454.70
2018-02-21T10:18:25.650Z,101465.32
2018-02-21T10:19:28.144Z,101466.34
2018-02-21T10:20:30.653Z,101462.68
2018-02-21T10:21:33.145Z,101459.80
2018-02-21T10:22:35.633Z,101462.86
2018-02-21T10:23:38.107Z,101469.39
2018-02-21T10:24:40.587Z,101462.66
2018-02-21T10:25:43.059Z,101453.99
2018-02-21T10:26:45.656Z,101457.25
2018-02-21T10:27:48.146Z,101457.83
2018-02-21T10:28:50.619Z,101463.48
2018-02-21T10:29:53.113Z,101460.10
2018-02-21T10:30:55.610Z,101457.30
2018-02-21T10:31:58.151Z,101454.52
2018-02-21T10:33:00.652Z,101456.08
2018-02-21T10:34:03.127Z,101454.39
2018-02-21T10:35:05.617Z,101456.59
2018-02-21T10:36:08.092Z,101456.12
2018-02-21T10:37:10.593Z,101457.91
2018-02-21T10:38:13.071Z,101454.49
2018-02-21T10:39:15.544Z,101458.97
2018-02-21T10:40:18.019Z,101456.43
2018-02-21T10:41:20.499Z,101459.59
2018-02-21T10:42:22.968Z,101448.23
2018-02-21T10:43:25.448Z,101448.94
2018-02-21T10:44:27.937Z,101453.39
2018-02-21T10:45:30.424Z,101449.81
2018-02-21T10:46:32.913Z,101446.12
2018-02-21T10:47:35.423Z,101454.13
2018-02-21T10:48:37.917Z,101454.19
2018-02-21T10:49:40.405Z,101452.15
2018-02-21T10:50:42.900Z,101444.91
2018-02-21T10:51:45.391Z,101441.09
2018-02-21T10:52:47.872Z,101446.75
2018-02-21T10:53:50.361Z,101444.22
2018-02-21T10:54:52.843Z,101447.40
2018-02-21T10:55:55.320Z,101442.77
2018-02-21T10:56:57.826Z,101443.38
2018-02-21T10:58:00.313Z,101441.34
2018-02-21T10:59:02.806Z,101441.50
2018-02-21T11:00:05.302Z,101441.81
2018-02-21T11:01:13.502Z,101442.12
2018-02-21T11:02:15.975Z,101438.55
2018-02-21T11:03:18.451Z,101442.02
2018-02-21T11:04:20.962Z,101435.44
2018-02-21T11:05:23.439Z,101435.31
2018-02-21T11:06:25.915Z,101432.46
2018-02-21T11:07:28.405Z,101430.02
2018-02-21T11:08:30.879Z,101433.08
2018-02-21T11:09:33.373Z,101437.67
2018-02-21T11:10:35.861Z,101437.01
2018-02-21T11:11:38.357Z,101437.72
2018-02-21T11:12:40.855Z,101431.55
2018-02-21T11:13:43.371Z,101435.44
2018-02-21T11:14:45.857Z,101434.20
2018-02-21T11:15:48.332Z,101430.77
2018-02-21T11:16:50.807Z,101433.42
2018-02-21T11:17:53.278Z,101438.36
2018-02-21T11:18:55.765Z,101437.70
2018-02-21T11:19:58.238Z,101441.47
2018-02-21T11:21:00.827Z,101446.02
2018-02-21T11:22:03.312Z,101435.97
2018-02-21T11:23:05.790Z,101436.69
2018-02-21T11:24:08.284Z,101439.03
2018-02-21T11:25:10.773Z,101440.81
2018-02-21T11:26:13.256Z,101436.84
2018-02-21T11:27:15.749Z,101437.80
2018-02-21T11:28:18.245Z,101431.89
2018-02-21T11:29:20.716Z,101434.80
2018-02-21T11:30:23.195Z,101444.33
2018-02-21T11:31:25.676Z,101434.59
2018-02-21T11:32:28.166Z,101435.31
2018-02-21T11:33:30.653Z,101438.06
2018-02-21T11:34:33.132Z,101437.37
2018-02-21T11:35:35.624Z,101435.89
2018-02-21T11:36:38.104Z,101431.92
2018-02-21T11:37:40.622Z,101429.63
2018-02-21T11:38:43.119Z,101427.59
2018-02-21T11:39:45.591Z,101430.91
2018-02-21T11:40:48.078Z,101427.74
2018-02-21T11:41:50.551Z,101430.91
2018-02-21T11:42:53.037Z,101434.22
2018-02-21T11:43:55.511Z,101433.50
2018-02-21T11:44:57.978Z,101432.94
2018-02-21T11:46:00.465Z,101430.19
2018-02-21T11:47:02.953Z,101424.69
2018-02-21T11:48:05.441Z,101424.53
2018-02-21T11:49:07.936Z,101437.88
2018-02-21T11:50:10.435Z,101421.94
2018-02-21T11:51:12.907Z,101426.47
2018-02-21T11:52:15.384Z,101426.63
2018-02-21T11:53:17.885Z,101420.71
2018-02-21T11:54:20.373Z,101421.12
2018-02-21T11:55:22.871Z,101419.74